FranceFixed distance
La Grande Course des Templiers
26 Oct2003
Distance
65km
Finishers
1,5541,417 men137 women
Winning time
5:56:10h
Median pace
6.56km/h
Pace distribution
1,554 finishers · 5.38–10.95 km/h · mean 6.78
Every finisher ran the same 65 km course, so these paces are directly comparable.
Histogram of finisher pace. 1,554 finishers ranged from 5.38 to 10.95 kilometres per hour, with a mean of 6.78 and a median of 6.56. The busiest band is 6.0 to 6.5 kilometres per hour, with 341 finishers.
Results
Ranks 1,401–1,450 of 1,554
| Rank | Runner | Time | Pace | Cat. | Placing |
|---|---|---|---|---|---|
| 1401 | Robert, LaurentFranceMan | 11:30:13h | 5.65 | M35 | 1292nd M · 177th M35 |
| 1402 | Vendewoorre, AlainFranceMan | 11:30:15h | 5.65 | M35 | 1293rd M · 178th M35 |
| 1403 | Brun-Baronnat, ChristopheFranceMan | 11:30:24h | 5.65 | — | 1294th M |
| 1404 | Signori, JeanmarcFranceMan | 11:31:01h | 5.64 | — | 1295th M |
| 1405 | Gaie, BernardFranceMan | 11:31:04h | 5.64 | — | 1296th M |
| 1406 | Ganzer, Jean-MarieFranceMan | 11:32:31h | 5.63 | M45 | 1297th M · 190th M45 |
| 1407 | Germa, SylvieFranceWoman | 11:32:48h | 5.63 | — | 110th F |
| 1408 | Garcia, LaurentFranceMan | 11:32:49h | 5.63 | M35 | 1298th M · 179th M35 |
| 1408 | Jasseron, FabriceFranceMan | 11:32:49h | 5.63 | M35 | 1298th M · 179th M35 |
| 1408 | Besalduch, AntoineFranceMan | 11:32:49h | 5.63 | — | 1298th M |
| 1411 | Ferru, CyrilleFranceMan | 11:32:55h | 5.63 | — | 1301st M |
| 1412 | Diot, NadegeFranceWoman | 11:32:56h | 5.63 | — | 111th F |
| 1412 | Beaufigeau, MarcFranceMan | 11:32:56h | 5.63 | — | 1302nd M |
| 1414 | Previdi-Prioul, MicheleFranceWoman | 11:32:58h | 5.63 | — | 112th F |
| 1414 | Guillemette, Jean-LucFranceMan | 11:32:58h | 5.63 | — | 1303rd M |
| 1416 | Raveneau, BriceFranceMan | 11:32:59h | 5.63 | M40 | 1304th M · 220th M40 |
| 1417 | Guennec, Jean-MarieFranceMan | 11:33:00h | 5.63 | M50 | 1305th M · 99th M50 |
| 1417 | Ramos, YoanFranceMan | 11:33:00h | 5.63 | M23 | 1305th M · 228th M23 |
| 1419 | Lallement, OlivierFranceMan | 11:33:09h | 5.63 | — | 1307th M |
| 1420 | Pelletier, MichelFranceMan | 11:33:16h | 5.63 | M60 | 1308th M · 12th M60 |
| 1421 | Ragain, Jean-ClaudeFranceMan | 11:33:19h | 5.63 | — | 1309th M |
| 1422 | Pinault, Jean-PierreFranceMan | 11:33:27h | 5.62 | M45 | 1310th M · 191st M45 |
| 1422 | Martin, RodolpheFranceMan | 11:33:27h | 5.62 | M23 | 1310th M · 229th M23 |
| 1422 | Martin, YvesFranceMan | 11:33:27h | 5.62 | M50 | 1310th M · 100th M50 |
| 1425 | Raffin, ChristineFranceWoman | 11:33:28h | 5.62 | W35 | 113th F · 15th W35 |
| 1425 | Raffin, ChristianFranceMan | 11:33:28h | 5.62 | — | 1313th M |
| 1427 | Hernicot, PaulFranceMan | 11:33:30h | 5.62 | — | 1314th M |
| 1428 | Fontaine, MarcFranceMan | 11:33:45h | 5.62 | M45 | 1315th M · 192nd M45 |
| 1429 | Erculisse, LaurentFranceMan | 11:33:59h | 5.62 | — | 1316th M |
| 1430 | Alcaide, MickaelFranceMan | 11:34:12h | 5.62 | M23 | 1317th M · 230th M23 |
| 1431 | Radet, PatriceFranceMan | 11:34:20h | 5.62 | M50 | 1318th M · 101st M50 |
| 1432 | Ghesquiere, MarcFranceMan | 11:34:34h | 5.62 | M45 | 1319th M · 193rd M45 |
| 1432 | Foucaud, FabienFranceMan | 11:34:34h | 5.62 | M23 | 1319th M · 231st M23 |
| 1434 | Sikora, DanielFranceMan | 11:34:36h | 5.62 | M50 | 1321st M · 102nd M50 |
| 1435 | Guillou, VincentFranceMan | 11:34:37h | 5.62 | — | 1322nd M |
| 1436 | Cocaud, OlivierFranceMan | 11:34:50h | 5.61 | M35 | 1323rd M · 181st M35 |
| 1437 | Martin, PatrickFranceMan | 11:34:56h | 5.61 | M45 | 1324th M · 194th M45 |
| 1438 | Vastel, CarolFranceWoman | 11:35:10h | 5.61 | W40 | 114th F · 23rd W40 |
| 1439 | Florentin, Jean-PierreFranceMan | 11:35:23h | 5.61 | M45 | 1325th M · 195th M45 |
| 1440 | Lebeault, Jean-CharlesFranceMan | 11:36:17h | 5.60 | — | 1326th M |
| 1441 | Noel, BenoitFranceMan | 11:36:27h | 5.60 | — | 1327th M |
| 1442 | Toulouse, Jean-PhilippeFranceMan | 11:36:33h | 5.60 | M45 | 1328th M · 196th M45 |
| 1443 | Heymann, Jean-PierreFranceMan | 11:36:58h | 5.60 | M60 | 1329th M · 13th M60 |
| 1443 | Jeudy, BernardFranceMan | 11:36:58h | 5.60 | — | 1329th M |
| 1445 | Barthes, DominiqueFranceMan | 11:36:59h | 5.60 | M50 | 1331st M · 103rd M50 |
| 1446 | Lherm, Jean-PierreFranceMan | 11:37:05h | 5.59 | — | 1332nd M |
| 1447 | Savio, Marie-EdmeeFranceWoman | 11:37:06h | 5.59 | W50 | 115th F · 11th W50 |
| 1447 | Cuisinier, NicoleFranceWoman | 11:37:06h | 5.59 | W50 | 115th F · 11th W50 |
| 1449 | Mas, HenriFranceMan | 11:37:08h | 5.59 | M55 | 1333rd M · 40th M55 |
| 1450 | Dufour, Jean-MarcFranceMan | 11:37:10h | 5.59 | M50 | 1334th M · 104th M50 |
- 1401Robert, LaurentFranceMan1292nd M · 177th M35Time11:30:13hPace5.65Cat.M35
- 1402Vendewoorre, AlainFranceMan1293rd M · 178th M35Time11:30:15hPace5.65Cat.M35
- 1403Brun-Baronnat, ChristopheFranceMan1294th MTime11:30:24hPace5.65
- 1404Signori, JeanmarcFranceMan1295th MTime11:31:01hPace5.64
- 1405Gaie, BernardFranceMan1296th MTime11:31:04hPace5.64
- 1406Ganzer, Jean-MarieFranceMan1297th M · 190th M45Time11:32:31hPace5.63Cat.M45
- 1407Germa, SylvieFranceWoman110th FTime11:32:48hPace5.63
- 1408Garcia, LaurentFranceMan1298th M · 179th M35Time11:32:49hPace5.63Cat.M35
- 1408Jasseron, FabriceFranceMan1298th M · 179th M35Time11:32:49hPace5.63Cat.M35
- 1408Besalduch, AntoineFranceMan1298th MTime11:32:49hPace5.63
- 1411Ferru, CyrilleFranceMan1301st MTime11:32:55hPace5.63
- 1412Diot, NadegeFranceWoman111th FTime11:32:56hPace5.63
- 1412Beaufigeau, MarcFranceMan1302nd MTime11:32:56hPace5.63
- 1414Previdi-Prioul, MicheleFranceWoman112th FTime11:32:58hPace5.63
- 1414Guillemette, Jean-LucFranceMan1303rd MTime11:32:58hPace5.63
- 1416Raveneau, BriceFranceMan1304th M · 220th M40Time11:32:59hPace5.63Cat.M40
- 1417Guennec, Jean-MarieFranceMan1305th M · 99th M50Time11:33:00hPace5.63Cat.M50
- 1417Ramos, YoanFranceMan1305th M · 228th M23Time11:33:00hPace5.63Cat.M23
- 1419Lallement, OlivierFranceMan1307th MTime11:33:09hPace5.63
- 1420Pelletier, MichelFranceMan1308th M · 12th M60Time11:33:16hPace5.63Cat.M60
- 1421Ragain, Jean-ClaudeFranceMan1309th MTime11:33:19hPace5.63
- 1422Pinault, Jean-PierreFranceMan1310th M · 191st M45Time11:33:27hPace5.62Cat.M45
- 1422Martin, RodolpheFranceMan1310th M · 229th M23Time11:33:27hPace5.62Cat.M23
- 1422Martin, YvesFranceMan1310th M · 100th M50Time11:33:27hPace5.62Cat.M50
- 1425Raffin, ChristineFranceWoman113th F · 15th W35Time11:33:28hPace5.62Cat.W35
- 1425Raffin, ChristianFranceMan1313th MTime11:33:28hPace5.62
- 1427Hernicot, PaulFranceMan1314th MTime11:33:30hPace5.62
- 1428Fontaine, MarcFranceMan1315th M · 192nd M45Time11:33:45hPace5.62Cat.M45
- 1429Erculisse, LaurentFranceMan1316th MTime11:33:59hPace5.62
- 1430Alcaide, MickaelFranceMan1317th M · 230th M23Time11:34:12hPace5.62Cat.M23
- 1431Radet, PatriceFranceMan1318th M · 101st M50Time11:34:20hPace5.62Cat.M50
- 1432Ghesquiere, MarcFranceMan1319th M · 193rd M45Time11:34:34hPace5.62Cat.M45
- 1432Foucaud, FabienFranceMan1319th M · 231st M23Time11:34:34hPace5.62Cat.M23
- 1434Sikora, DanielFranceMan1321st M · 102nd M50Time11:34:36hPace5.62Cat.M50
- 1435Guillou, VincentFranceMan1322nd MTime11:34:37hPace5.62
- 1436Cocaud, OlivierFranceMan1323rd M · 181st M35Time11:34:50hPace5.61Cat.M35
- 1437Martin, PatrickFranceMan1324th M · 194th M45Time11:34:56hPace5.61Cat.M45
- 1438Vastel, CarolFranceWoman114th F · 23rd W40Time11:35:10hPace5.61Cat.W40
- 1439Florentin, Jean-PierreFranceMan1325th M · 195th M45Time11:35:23hPace5.61Cat.M45
- 1440Lebeault, Jean-CharlesFranceMan1326th MTime11:36:17hPace5.60
- 1441Noel, BenoitFranceMan1327th MTime11:36:27hPace5.60
- 1442Toulouse, Jean-PhilippeFranceMan1328th M · 196th M45Time11:36:33hPace5.60Cat.M45
- 1443Heymann, Jean-PierreFranceMan1329th M · 13th M60Time11:36:58hPace5.60Cat.M60
- 1443Jeudy, BernardFranceMan1329th MTime11:36:58hPace5.60
- 1445Barthes, DominiqueFranceMan1331st M · 103rd M50Time11:36:59hPace5.60Cat.M50
- 1446Lherm, Jean-PierreFranceMan1332nd MTime11:37:05hPace5.59
- 1447Savio, Marie-EdmeeFranceWoman115th F · 11th W50Time11:37:06hPace5.59Cat.W50
- 1447Cuisinier, NicoleFranceWoman115th F · 11th W50Time11:37:06hPace5.59Cat.W50
- 1449Mas, HenriFranceMan1333rd M · 40th M55Time11:37:08hPace5.59Cat.M55
- 1450Dufour, Jean-MarcFranceMan1334th M · 104th M50Time11:37:10hPace5.59Cat.M50
Showing ranks 1,401–1,450 of 1,554